createdAt,value
2019-03-12T00:01:54.276Z,41.32
2019-03-12T00:04:26.279Z,41.30
2019-03-12T00:06:53.416Z,41.34
2019-03-12T00:09:25.233Z,41.27
2019-03-12T00:12:10.002Z,41.15
2019-03-12T00:14:38.790Z,41.06
2019-03-12T00:17:06.171Z,40.84
2019-03-12T00:19:38.582Z,40.64
2019-03-12T00:22:04.095Z,40.37
2019-03-12T00:24:31.219Z,40.31
2019-03-12T00:27:02.752Z,40.27
2019-03-12T00:29:29.888Z,40.23
2019-03-12T00:32:13.809Z,40.27
2019-03-12T00:34:41.351Z,40.27
2019-03-12T00:37:10.891Z,40.39
2019-03-12T00:39:39.500Z,40.47
2019-03-12T00:42:08.547Z,40.51
2019-03-12T00:47:32.491Z,40.55
2019-03-12T00:50:04.273Z,40.61
2019-03-12T00:52:31.353Z,40.67
2019-03-12T00:55:03.993Z,40.79
2019-03-12T00:57:33.008Z,40.92
2019-03-12T01:00:00.060Z,40.99
2019-03-12T01:02:36.236Z,40.99
2019-03-12T01:05:07.809Z,41.00
2019-03-12T01:07:34.940Z,40.96
2019-03-12T01:10:02.463Z,40.85
2019-03-12T01:12:34.773Z,40.78
2019-03-12T01:15:02.922Z,40.67
2019-03-12T01:17:38.044Z,40.56
2019-03-12T01:20:05.141Z,40.46
2019-03-12T01:22:32.188Z,40.27
2019-03-12T01:25:09.150Z,40.08
2019-03-12T01:27:33.346Z,39.93
2019-03-12T01:30:02.908Z,39.86
2019-03-12T01:32:37.011Z,39.85
2019-03-12T01:35:06.140Z,39.84
2019-03-12T01:37:33.366Z,39.82
2019-03-12T01:40:00.723Z,39.81
2019-03-12T01:42:28.680Z,39.71
2019-03-12T01:45:02.506Z,39.77
2019-03-12T01:47:29.458Z,39.77
2019-03-12T01:49:58.518Z,39.74
2019-03-12T01:52:27.169Z,39.78
2019-03-12T01:55:01.915Z,39.84
2019-03-12T01:57:47.714Z,39.86
2019-03-12T02:00:11.631Z,39.89
2019-03-12T02:02:38.869Z,39.96
2019-03-12T02:05:05.870Z,40.05
2019-03-12T02:07:33.284Z,40.12
2019-03-12T02:10:00.704Z,40.06
2019-03-12T02:12:27.860Z,39.99
2019-03-12T02:14:56.070Z,39.79
2019-03-12T02:17:24.666Z,39.68
2019-03-12T02:19:53.726Z,39.75
2019-03-12T02:22:23.479Z,39.79
2019-03-12T02:24:52.892Z,39.80
2019-03-12T02:27:19.416Z,39.75
2019-03-12T02:29:46.821Z,39.73
2019-03-12T02:32:15.678Z,39.75
2019-03-12T02:34:43.876Z,39.71
2019-03-12T02:37:13.749Z,39.55
2019-03-12T02:39:46.312Z,39.40
2019-03-12T02:42:16.636Z,39.32
2019-03-12T02:44:45.318Z,39.37
2019-03-12T02:47:13.853Z,39.45
2019-03-12T02:49:42.507Z,39.48
2019-03-12T02:52:09.491Z,39.51
2019-03-12T02:54:36.580Z,39.57
2019-03-12T02:57:04.347Z,39.62
2019-03-12T02:59:34.443Z,39.68
2019-03-12T03:02:01.722Z,39.80
2019-03-12T03:04:29.595Z,39.86
2019-03-12T03:07:03.649Z,39.94
2019-03-12T03:09:32.287Z,39.93
2019-03-12T03:11:59.375Z,39.98
2019-03-12T03:14:27.213Z,39.96
2019-03-12T03:17:03.166Z,39.93
2019-03-12T03:19:30.210Z,39.98
2019-03-12T03:21:58.285Z,40.06
2019-03-12T03:24:31.702Z,40.10
2019-03-12T03:27:11.051Z,40.15
2019-03-12T03:29:35.352Z,40.14
2019-03-12T03:32:02.525Z,40.04
2019-03-12T03:34:29.960Z,40.03
2019-03-12T03:36:57.458Z,40.05
2019-03-12T03:39:24.449Z,39.94
2019-03-12T03:41:51.488Z,39.92
2019-03-12T03:44:18.599Z,39.87
2019-03-12T03:46:48.408Z,39.83
2019-03-12T03:49:23.238Z,39.86
2019-03-12T03:51:49.288Z,39.82
2019-03-12T03:54:16.320Z,39.89
2019-03-12T03:56:51.067Z,39.87
2019-03-12T03:59:20.212Z,39.84
2019-03-12T04:01:47.333Z,39.82
2019-03-12T04:04:16.157Z,39.78
2019-03-12T04:06:43.318Z,39.79
2019-03-12T04:09:15.980Z,39.86
2019-03-12T04:11:46.038Z,39.87
2019-03-12T04:14:13.582Z,39.90
2019-03-12T04:16:43.267Z,39.83
2019-03-12T04:19:15.383Z,39.80
2019-03-12T04:21:45.195Z,39.77
2019-03-12T04:24:14.025Z,39.75
2019-03-12T04:26:41.412Z,39.78
2019-03-12T04:29:10.968Z,39.81
2019-03-12T04:31:44.697Z,39.85
2019-03-12T04:34:10.076Z,39.90
2019-03-12T04:36:39.197Z,39.91
2019-03-12T04:39:07.422Z,39.83
2019-03-12T04:41:36.282Z,39.75
2019-03-12T04:44:03.437Z,39.69
2019-03-12T04:46:30.587Z,39.70
2019-03-12T04:49:01.549Z,39.75
2019-03-12T04:51:33.702Z,39.72
2019-03-12T04:54:02.486Z,39.76
2019-03-12T04:59:19.794Z,39.80
2019-03-12T05:01:46.858Z,39.80
2019-03-12T05:04:16.168Z,39.83
2019-03-12T05:06:49.325Z,39.77
2019-03-12T05:09:23.776Z,39.74
2019-03-12T05:14:37.161Z,39.93
2019-03-12T05:17:05.351Z,39.86
2019-03-12T05:19:32.356Z,39.91
2019-03-12T05:21:59.603Z,39.92
2019-03-12T05:24:28.014Z,39.90
2019-03-12T05:26:58.918Z,39.90
2019-03-12T05:29:25.739Z,39.93
2019-03-12T05:31:52.793Z,39.97
2019-03-12T05:34:24.204Z,40.03
2019-03-12T05:36:54.172Z,40.06
2019-03-12T05:39:22.494Z,40.06
2019-03-12T05:41:51.311Z,40.07
2019-03-12T05:44:20.385Z,40.05
2019-03-12T05:46:50.920Z,40.02
2019-03-12T05:49:24.036Z,40.01
2019-03-12T05:51:52.653Z,40.03
2019-03-12T05:54:19.700Z,40.04
2019-03-12T05:56:48.768Z,40.04
2019-03-12T05:59:15.850Z,40.06
2019-03-12T06:01:51.910Z,40.09
2019-03-12T06:04:21.819Z,40.12
2019-03-12T06:06:52.504Z,40.18
2019-03-12T06:09:30.658Z,40.23
2019-03-12T06:11:55.342Z,40.28
2019-03-12T06:14:28.230Z,40.29
2019-03-12T06:16:57.131Z,40.33
2019-03-12T06:19:24.348Z,40.24
2019-03-12T06:21:56.165Z,40.15
2019-03-12T06:24:26.354Z,40.15
2019-03-12T06:26:53.762Z,40.13
2019-03-12T06:29:26.710Z,40.08
2019-03-12T06:31:53.766Z,39.98
2019-03-12T06:34:21.314Z,39.96
2019-03-12T06:36:48.294Z,39.96
2019-03-12T06:39:15.560Z,39.89
2019-03-12T06:41:46.644Z,39.91
2019-03-12T06:44:13.871Z,39.91
2019-03-12T06:46:42.793Z,39.86
2019-03-12T06:49:10.262Z,39.81
2019-03-12T06:51:38.911Z,39.62
2019-03-12T06:54:06.155Z,39.48
2019-03-12T06:56:37.629Z,39.50
2019-03-12T06:59:07.559Z,39.56
2019-03-12T07:01:36.052Z,39.62
2019-03-12T07:04:04.661Z,39.64
2019-03-12T07:06:32.149Z,39.65
2019-03-12T07:09:06.362Z,39.73
2019-03-12T07:11:35.420Z,39.70
2019-03-12T07:14:04.769Z,39.65
2019-03-12T07:16:33.531Z,39.57
2019-03-12T07:19:00.565Z,39.54
2019-03-12T07:21:28.821Z,39.55
2019-03-12T07:24:13.660Z,39.53
2019-03-12T07:26:43.218Z,39.58
2019-03-12T07:29:10.588Z,39.54
2019-03-12T07:31:37.888Z,39.42
2019-03-12T07:34:04.970Z,39.32
2019-03-12T07:36:32.027Z,39.21
2019-03-12T07:38:59.261Z,39.11
2019-03-12T07:41:32.238Z,39.03
2019-03-12T07:43:55.326Z,38.96
2019-03-12T07:46:22.603Z,38.82
2019-03-12T07:48:51.313Z,38.73
2019-03-12T07:51:18.325Z,38.64
2019-03-12T07:53:59.004Z,38.61
2019-03-12T07:56:17.511Z,38.54
2019-03-12T07:58:44.550Z,38.48
2019-03-12T08:01:11.498Z,38.40
2019-03-12T08:03:38.603Z,38.39
2019-03-12T08:06:07.212Z,38.28
2019-03-12T08:08:38.850Z,38.17
2019-03-12T08:11:07.464Z,37.99
2019-03-12T08:13:34.935Z,37.88
2019-03-12T08:16:02.223Z,37.80
2019-03-12T08:18:29.715Z,37.75
2019-03-12T08:21:00.454Z,37.72
2019-03-12T08:23:28.576Z,37.59
2019-03-12T08:25:55.733Z,37.56
2019-03-12T08:28:22.716Z,37.53
2019-03-12T08:30:49.799Z,37.52
2019-03-12T08:33:16.794Z,37.44
2019-03-12T08:35:43.755Z,37.32
2019-03-12T08:38:25.495Z,37.17
2019-03-12T08:40:52.969Z,37.19
2019-03-12T08:43:20.376Z,37.28
2019-03-12T08:46:01.868Z,37.21
2019-03-12T08:48:30.443Z,37.13
2019-03-12T08:50:57.566Z,37.01
2019-03-12T08:53:24.597Z,36.93
2019-03-12T08:55:51.624Z,36.80
2019-03-12T08:58:19.806Z,36.63
2019-03-12T09:00:48.755Z,36.46
2019-03-12T09:03:17.565Z,36.40
2019-03-12T09:05:44.729Z,36.32
2019-03-12T09:08:13.800Z,36.22
2019-03-12T09:10:42.020Z,36.25
2019-03-12T09:13:09.069Z,36.34
2019-03-12T09:15:36.039Z,36.38
2019-03-12T09:18:05.743Z,36.19
2019-03-12T09:20:32.763Z,36.14
2019-03-12T09:22:59.733Z,36.21
2019-03-12T09:25:26.671Z,36.28
2019-03-12T09:27:56.098Z,36.22
2019-03-12T09:30:23.173Z,36.17
2019-03-12T09:32:56.577Z,36.06
2019-03-12T09:35:28.418Z,35.99
2019-03-12T09:37:55.411Z,35.93
2019-03-12T09:40:23.561Z,35.94
2019-03-12T09:42:52.162Z,36.00
2019-03-12T09:45:20.291Z,35.99
2019-03-12T09:47:47.345Z,35.99
2019-03-12T09:50:15.988Z,36.00
2019-03-12T09:52:43.261Z,35.88
2019-03-12T09:55:12.460Z,35.68
2019-03-12T09:57:40.859Z,35.57
2019-03-12T10:00:16.109Z,35.43
2019-03-12T10:02:39.833Z,35.41
2019-03-12T10:05:07.879Z,35.37
2019-03-12T10:07:34.845Z,35.32
2019-03-12T10:10:01.908Z,35.35
2019-03-12T10:12:33.255Z,35.26
2019-03-12T10:15:00.836Z,35.21
2019-03-12T10:17:27.870Z,34.98
2019-03-12T10:19:54.766Z,34.91
2019-03-12T10:22:21.854Z,34.90
2019-03-12T10:24:49.149Z,34.86
2019-03-12T10:27:19.397Z,34.80
2019-03-12T10:29:46.717Z,34.84
2019-03-12T10:32:13.682Z,34.71
2019-03-12T10:34:40.562Z,34.59
2019-03-12T10:37:12.373Z,34.56
2019-03-12T10:39:36.863Z,34.40
2019-03-12T10:42:04.306Z,34.49
2019-03-12T10:44:34.053Z,34.57
2019-03-12T10:47:01.045Z,34.56
2019-03-12T10:49:37.468Z,34.49
2019-03-12T10:51:57.024Z,34.29
2019-03-12T10:54:25.911Z,34.08
2019-03-12T10:56:52.874Z,33.88
2019-03-12T10:59:19.871Z,33.72
2019-03-12T11:01:46.919Z,33.54
2019-03-12T11:04:20.066Z,33.45
2019-03-12T11:07:15.829Z,33.40
2019-03-12T11:09:48.391Z,33.36
2019-03-12T11:12:13.241Z,33.28
2019-03-12T11:14:42.618Z,32.92
2019-03-12T11:19:53.358Z,32.80
2019-03-12T11:22:20.353Z,32.78
2019-03-12T11:24:47.598Z,32.79
2019-03-12T11:27:14.855Z,32.71
2019-03-12T11:29:41.829Z,32.54
2019-03-12T11:32:08.847Z,32.44
2019-03-12T11:34:38.376Z,32.47
2019-03-12T11:37:04.661Z,32.50
2019-03-12T11:39:32.077Z,32.34
2019-03-12T11:41:59.132Z,32.19
2019-03-12T11:44:26.391Z,32.16
2019-03-12T11:46:59.651Z,32.26
2019-03-12T11:49:26.765Z,32.31
2019-03-12T11:51:53.764Z,32.36
2019-03-12T11:54:21.236Z,32.39
2019-03-12T11:56:48.748Z,32.37
2019-03-12T11:59:16.164Z,32.27
2019-03-12T12:01:43.377Z,32.10
2019-03-12T12:04:10.354Z,31.96
2019-03-12T12:06:42.540Z,31.93
2019-03-12T12:09:06.333Z,31.73
2019-03-12T12:11:37.970Z,31.62
2019-03-12T12:14:04.898Z,31.41
2019-03-12T12:16:32.059Z,31.32
2019-03-12T12:19:00.539Z,31.18
2019-03-12T12:21:29.119Z,31.12
2019-03-12T12:23:56.226Z,31.07
2019-03-12T12:26:23.459Z,30.85
2019-03-12T12:28:52.031Z,30.80
2019-03-12T12:31:19.017Z,30.81
2019-03-12T12:33:46.029Z,30.66
2019-03-12T12:36:13.110Z,30.53
2019-03-12T12:38:40.106Z,30.43
2019-03-12T12:41:07.088Z,30.82
2019-03-12T12:43:34.402Z,32.07
2019-03-12T12:46:01.964Z,32.68
2019-03-12T12:48:32.022Z,32.84
2019-03-12T12:51:03.430Z,33.17
2019-03-12T12:53:29.193Z,33.34
2019-03-12T12:55:59.581Z,32.97
2019-03-12T12:58:26.592Z,32.92
2019-03-12T13:00:56.777Z,32.68
2019-03-12T13:03:28.705Z,32.46
2019-03-12T13:05:56.832Z,32.65
2019-03-12T13:08:25.548Z,32.46
2019-03-12T13:10:54.623Z,32.20
2019-03-12T13:13:21.653Z,32.07
2019-03-12T13:15:48.771Z,31.91
2019-03-12T13:18:17.401Z,31.95
2019-03-12T13:20:46.129Z,31.73
2019-03-12T13:23:16.120Z,31.49
2019-03-12T13:25:43.140Z,31.40
2019-03-12T13:28:10.552Z,31.32
2019-03-12T13:30:40.545Z,30.95
2019-03-12T13:33:09.303Z,30.90
2019-03-12T13:35:37.433Z,30.57
2019-03-12T13:38:04.407Z,30.51
2019-03-12T13:40:34.466Z,30.50
2019-03-12T13:43:03.069Z,30.36
2019-03-12T13:45:30.155Z,30.07
2019-03-12T13:48:01.795Z,29.98
2019-03-12T13:50:28.640Z,30.02
2019-03-12T13:52:55.691Z,29.97
2019-03-12T13:55:24.423Z,29.94
2019-03-12T13:57:51.655Z,29.93
2019-03-12T14:00:25.966Z,29.96
2019-03-12T14:03:06.220Z,29.84
2019-03-12T14:05:39.103Z,29.61
2019-03-12T14:08:11.419Z,29.82
2019-03-12T14:10:40.995Z,29.63
2019-03-12T14:13:08.055Z,29.47
2019-03-12T14:15:35.373Z,29.38
2019-03-12T14:18:02.639Z,29.38
2019-03-12T14:23:09.661Z,28.85
2019-03-12T14:25:36.671Z,28.92
2019-03-12T14:28:05.960Z,28.82
2019-03-12T14:30:32.728Z,29.00
2019-03-12T14:33:04.275Z,28.92
2019-03-12T14:35:31.692Z,28.91
2019-03-12T14:37:58.603Z,29.11
2019-03-12T14:40:25.965Z,30.00
2019-03-12T14:42:52.905Z,31.65
2019-03-12T14:45:20.146Z,32.41
2019-03-12T14:47:47.126Z,32.95
2019-03-12T14:50:14.079Z,32.24
2019-03-12T14:52:41.026Z,31.60
2019-03-12T14:55:07.909Z,31.85
2019-03-12T14:57:34.799Z,31.10
2019-03-12T15:00:01.780Z,30.46
2019-03-12T15:02:30.404Z,30.93
2019-03-12T15:04:58.839Z,31.04
2019-03-12T15:07:26.134Z,31.05
2019-03-12T15:09:53.297Z,31.63
2019-03-12T15:12:20.252Z,31.64
2019-03-12T15:14:47.294Z,31.61
2019-03-12T15:17:14.201Z,31.69
2019-03-12T15:19:41.090Z,31.78
2019-03-12T15:22:08.418Z,31.25
2019-03-12T15:24:36.374Z,30.74
2019-03-12T15:27:03.650Z,30.76
2019-03-12T15:29:30.912Z,31.17
2019-03-12T15:32:04.238Z,30.35
2019-03-12T15:34:26.825Z,29.71
2019-03-12T15:36:53.716Z,29.65
2019-03-12T15:39:20.963Z,29.01
2019-03-12T15:41:48.254Z,29.13
2019-03-12T15:44:15.589Z,29.47
2019-03-12T15:46:44.277Z,29.41
2019-03-12T15:49:11.188Z,29.20
2019-03-12T15:51:38.529Z,28.82
2019-03-12T15:54:05.778Z,29.12
2019-03-12T15:56:32.725Z,29.22
2019-03-12T15:59:00.098Z,29.43
2019-03-12T16:01:29.937Z,29.08
2019-03-12T16:03:56.984Z,29.46
2019-03-12T16:06:26.327Z,29.57
2019-03-12T16:08:52.521Z,29.29
2019-03-12T16:11:22.924Z,28.84
2019-03-12T16:13:49.896Z,29.48
2019-03-12T16:16:16.852Z,28.86
2019-03-12T16:18:43.830Z,28.65
2019-03-12T16:21:11.103Z,28.61
2019-03-12T16:23:37.963Z,28.63
2019-03-12T16:26:04.980Z,28.44
2019-03-12T16:28:33.003Z,28.28
2019-03-12T16:31:00.077Z,28.23
2019-03-12T16:33:27.018Z,28.24
2019-03-12T16:35:54.334Z,28.16
2019-03-12T16:38:21.292Z,28.00
2019-03-12T16:40:48.277Z,28.03
2019-03-12T16:43:15.582Z,27.95
2019-03-12T16:45:44.207Z,27.79
2019-03-12T16:48:11.100Z,27.69
2019-03-12T16:50:38.206Z,27.76
2019-03-12T16:53:07.158Z,27.87
2019-03-12T16:55:33.842Z,27.94
2019-03-12T16:58:04.485Z,27.98
2019-03-12T17:00:31.377Z,28.16
2019-03-12T17:03:03.760Z,27.97
2019-03-12T17:05:31.081Z,27.87
2019-03-12T17:07:58.009Z,28.01
2019-03-12T17:10:26.828Z,28.11
2019-03-12T17:12:54.187Z,27.93
2019-03-12T17:15:21.415Z,28.00
2019-03-12T17:17:48.385Z,27.95
2019-03-12T17:20:15.621Z,28.04
2019-03-12T17:22:42.672Z,28.07
2019-03-12T17:25:09.667Z,28.12
2019-03-12T17:27:36.956Z,28.03
2019-03-12T17:30:05.758Z,27.95
2019-03-12T17:32:33.638Z,28.05
2019-03-12T17:35:00.957Z,28.04
2019-03-12T17:37:27.814Z,28.09
2019-03-12T17:39:57.095Z,28.11
2019-03-12T17:42:24.254Z,28.67
2019-03-12T17:44:51.817Z,28.61
2019-03-12T17:47:18.725Z,28.47
2019-03-12T17:49:45.654Z,28.44
2019-03-12T17:52:12.599Z,28.35
2019-03-12T17:54:39.490Z,28.23
2019-03-12T17:57:06.775Z,28.27
2019-03-12T17:59:34.025Z,28.23
2019-03-12T18:02:01.388Z,28.23
2019-03-12T18:04:28.729Z,28.15
2019-03-12T18:06:59.437Z,28.09
2019-03-12T18:09:26.471Z,28.07
2019-03-12T18:11:54.925Z,28.00
2019-03-12T18:14:22.294Z,27.95
2019-03-12T18:16:49.298Z,27.90
2019-03-12T18:19:16.261Z,27.81
2019-03-12T18:21:44.058Z,27.81
2019-03-12T18:24:11.189Z,27.76
2019-03-12T18:26:38.204Z,27.68
2019-03-12T18:29:05.338Z,27.68
2019-03-12T18:31:32.314Z,27.59
2019-03-12T18:34:02.676Z,27.62
2019-03-12T18:36:29.632Z,27.50
2019-03-12T18:38:56.642Z,27.35
2019-03-12T18:41:23.677Z,27.25
2019-03-12T18:43:51.746Z,27.18
2019-03-12T18:46:18.733Z,27.21
2019-03-12T18:48:45.702Z,27.11
2019-03-12T18:51:12.603Z,27.17
2019-03-12T18:53:39.558Z,27.07
2019-03-12T18:56:06.512Z,26.92
2019-03-12T18:58:35.617Z,27.02
2019-03-12T19:01:02.578Z,26.96
2019-03-12T19:03:29.565Z,26.86
2019-03-12T19:05:56.530Z,26.83
2019-03-12T19:08:24.640Z,26.89
2019-03-12T19:10:54.791Z,26.83
2019-03-12T19:13:22.058Z,26.75
2019-03-12T19:15:49.015Z,26.73
2019-03-12T19:18:16.365Z,26.62
2019-03-12T19:20:45.259Z,26.52
2019-03-12T19:23:12.586Z,26.46
2019-03-12T19:25:39.596Z,26.48
2019-03-12T19:28:06.662Z,26.44
2019-03-12T19:30:33.963Z,26.49
2019-03-12T19:33:08.518Z,26.38
2019-03-12T19:35:35.529Z,26.37
2019-03-12T19:38:02.524Z,26.30
2019-03-12T19:40:29.813Z,26.30
2019-03-12T19:42:56.713Z,26.29
2019-03-12T19:45:23.746Z,26.21
2019-03-12T19:47:53.751Z,26.20
2019-03-12T19:50:20.722Z,26.23
2019-03-12T19:52:47.624Z,26.22
2019-03-12T19:55:14.995Z,26.11
2019-03-12T19:57:42.234Z,26.06
2019-03-12T20:00:09.213Z,26.06
2019-03-12T20:02:36.535Z,26.03
2019-03-12T20:05:03.427Z,25.95
2019-03-12T20:07:30.380Z,25.85
2019-03-12T20:09:57.433Z,25.82
2019-03-12T20:12:24.310Z,25.79
2019-03-12T20:14:51.386Z,25.71
2019-03-12T20:17:18.367Z,25.71
2019-03-12T20:19:47.952Z,25.76
2019-03-12T20:22:17.578Z,25.72
2019-03-12T20:24:45.785Z,25.79
2019-03-12T20:27:12.782Z,25.89
2019-03-12T20:29:42.385Z,25.80
2019-03-12T20:32:09.732Z,25.72
2019-03-12T20:34:37.186Z,25.69
2019-03-12T20:37:04.518Z,25.65
2019-03-12T20:39:31.759Z,25.66
2019-03-12T20:41:58.770Z,25.56
2019-03-12T20:44:25.765Z,25.48
2019-03-12T20:46:53.015Z,25.46
2019-03-12T20:49:19.898Z,25.50
2019-03-12T20:51:46.883Z,25.55
2019-03-12T20:54:13.935Z,25.49
2019-03-12T20:56:41.222Z,25.54
2019-03-12T20:59:08.181Z,25.55
2019-03-12T21:01:35.401Z,25.50
2019-03-12T21:04:02.283Z,25.49
2019-03-12T21:06:29.232Z,25.39
2019-03-12T21:08:56.781Z,25.47
2019-03-12T21:11:23.756Z,25.51
2019-03-12T21:13:50.953Z,25.42
2019-03-12T21:16:17.922Z,25.44
2019-03-12T21:18:45.162Z,25.51
2019-03-12T21:21:12.521Z,25.55
2019-03-12T21:23:39.521Z,25.53
2019-03-12T21:26:06.602Z,25.63
2019-03-12T21:28:33.851Z,25.60
2019-03-12T21:31:00.849Z,25.67
2019-03-12T21:33:28.275Z,25.70
2019-03-12T21:35:57.334Z,25.76
2019-03-12T21:38:24.726Z,25.73
2019-03-12T21:40:53.802Z,25.78
2019-03-12T21:43:20.744Z,25.80
2019-03-12T21:45:47.779Z,25.88
2019-03-12T21:48:14.824Z,25.89
2019-03-12T21:50:44.641Z,25.87
2019-03-12T21:53:17.676Z,25.75
2019-03-12T21:55:46.461Z,25.67
2019-03-12T21:58:16.540Z,25.56
2019-03-12T22:00:43.723Z,25.50
2019-03-12T22:03:11.963Z,25.44
2019-03-12T22:05:40.303Z,25.25
2019-03-12T22:08:08.169Z,25.14
2019-03-12T22:10:35.312Z,25.15
2019-03-12T22:13:06.655Z,25.12
2019-03-12T22:15:33.914Z,25.09
2019-03-12T22:18:01.022Z,25.09
2019-03-12T22:20:28.404Z,25.08
2019-03-12T22:23:02.714Z,25.02
2019-03-12T22:25:26.967Z,25.03
2019-03-12T22:27:56.032Z,24.97
2019-03-12T22:30:24.671Z,25.02
2019-03-12T22:33:04.310Z,24.97
2019-03-12T22:35:34.110Z,25.04
2019-03-12T22:38:02.729Z,25.57
2019-03-12T22:40:30.101Z,26.00
2019-03-12T22:42:57.408Z,26.20
2019-03-12T22:45:25.478Z,26.25
2019-03-12T22:48:01.320Z,26.12
2019-03-12T22:50:31.295Z,26.12
2019-03-12T22:52:58.855Z,25.84
2019-03-12T22:55:27.684Z,25.39
2019-03-12T22:57:55.260Z,25.02
2019-03-12T23:00:40.537Z,24.77
2019-03-12T23:03:25.523Z,24.53
2019-03-12T23:06:10.376Z,24.37
2019-03-12T23:08:55.669Z,24.21
2019-03-12T23:11:24.466Z,24.14
2019-03-12T23:13:55.864Z,24.20
2019-03-12T23:16:24.327Z,24.09
2019-03-12T23:18:53.000Z,24.02
2019-03-12T23:21:21.155Z,23.98
2019-03-12T23:23:48.454Z,23.84
2019-03-12T23:26:17.110Z,23.79
2019-03-12T23:28:44.342Z,23.88
2019-03-12T23:31:12.839Z,23.83
2019-03-12T23:33:40.141Z,23.64
2019-03-12T23:36:07.112Z,23.58
2019-03-12T23:38:35.881Z,23.61
2019-03-12T23:41:03.058Z,23.56
2019-03-12T23:43:32.755Z,23.48
2019-03-12T23:46:05.260Z,23.48
2019-03-12T23:48:28.882Z,23.48
2019-03-12T23:50:59.120Z,23.49
2019-03-12T23:53:26.275Z,23.46
2019-03-12T23:55:53.374Z,23.41
2019-03-12T23:58:20.278Z,23.45
